Home > Products > Valid Products > MTR

000
SAUS42 KCHS 052105
MTRSAV
SPECI KSAV 052104Z 00000KT 3SM TSRA BR BKN037CB BKN050 OVC110 23/22
A3015 RMK AO2 OCNL LTGICCG OHD TS OHD MOV NE P0006





000
SAUS42 KCHS 052101
MTRSAV
SPECI KSAV 052100Z 25003KT 1 1/2SM R10/5000VP6000FT +TSRA BR
BKN037CB BKN050 OVC110 23/22 A3015 RMK AO2 OCNL LTGICCG OHD TS OHD
MOV NE P0005





000
SAUS42 KCHS 052057
MTRNBC
METAR KNBC 052056Z AUTO 20004KT 10SM BKN110 27/24 A3011 RMK AO2
SLP198 60009 T02670239 55011





000
SAUS42 KCHS 052054
MTRSAV
METAR KSAV 052053Z 27004KT 3/4SM R10/3500VP6000FT +TSRA BR BKN031CB
BKN040 BKN060 23/22 A3014 RMK AO2 SLP206 OCNL LTGICCG TS OVHD MOV NE
P0094 60148 T02280217 53001





000
SAUS42 KCHS 052045
MTRSAV
SPECI KSAV 052043Z 25012KT 1SM R10/5000VP6000FT +TSRA BR SCT042CB
BKN050 BKN060 23/22 A3013 RMK AO2 OCNL LTGICCG TS OVHD MOV NE P0068





000
SAUS42 KCHS 052035
MTRSAV
SPECI KSAV 052034Z 30010KT 2 1/2SM R10/5500VP6000FT TSRA BR SCT042CB
BKN050 BKN060 23/21 A3013 RMK AO2 OCNL LTGICCG TS OVHD MOV NE P0058





000
SAUS42 KCHS 052025
MTRSAV
SPECI KSAV 052024Z 31012KT 1 3/4SM R10/4000VP6000FT TSRA BR FEW015
BKN021CB BKN060 23/21 A3013 RMK AO2 OCNL LTGICCG TS OVHD MOV NE
P0052





000
SAUS42 KCHS 052008
MTRSAV
SPECI KSAV 052007Z 34013G18KT 4SM R10/4500VP6000FT +TSRA BKN015CB
BKN055 23/21 A3011 RMK AO2 OCNL LTGICCG TS OVHD MOV NE P0045





000
SAUS42 KCHS 052001
MTRSAV
SPECI KSAV 052000Z 33011G15KT 1/2SM R10/2200VP6000FT +TSRA FG
BKN013CB OVC055 23/21 A3013 RMK AO2 OCNL LTGICCG TS OVHD MOV NE
P0041





000
SAUS42 KCHS 052001
MTRSAV
SPECI KSAV 052000Z 33011G15KT 1/2SM R10/2200VP6000FT +TSRA FG
BKN013CB OVC055 23/21 A3013 RMK AO2 OCNL LTGICCG TS OVHD MOV NE
P0041





000
SAUS42 KCHS 051957
MTRNBC
METAR KNBC 051956Z AUTO 17003KT 10SM SCT037 BKN047 26/24 A3010 RMK
AO2 TSE12B35E55 SLP193 P0001 T02560239





000
SAUS42 KCHS 051954
MTRSAV
METAR KSAV 051953Z 34006G16KT 1/2SM R10/2200VP6000FT +TSRA SCT011
BKN042CB BKN055 24/22 A3014 RMK AO2 SLP206 OCNL LTGICCG OHD TS OHD
MOV NE P0023 T02440217





000
SAUS42 KCHS 051942
MTRNBC
SPECI KNBC 051941Z AUTO 17003KT 10SM TS CLR 26/24 A3011 RMK AO2
TSE12B35 P0001 T02560239





000
SAUS42 KCHS 051942
MTRNBC
SPECI KNBC 051941Z AUTO 17003KT 10SM TS CLR 26/24 A3011 RMK AO2
TSE12B35 P0001 T02560239





000
SAUS42 KCHS 051919
MTRNBC
SPECI KNBC 051918Z AUTO 17003KT 10SM CLR 26/24 A3013 RMK AO2 TSE12
P0001 T02560239





000
SAUS42 KCHS 051919
MTRNBC
SPECI KNBC 051918Z AUTO 17003KT 10SM CLR 26/24 A3013 RMK AO2 TSE12
P0001 T02560239





000
SAUS42 KCHS 051916
MTRSAV
SPECI KSAV 051915Z 02006KT 8SM TS BKN036CB BKN047 OVC090 25/23 A3011
RMK AO2 RAE13 OCNL LTGICCG OHD TS OHD MOV NE P0016





000
SAUS42 KCHS 051916
MTRSAV
SPECI KSAV 051915Z 02006KT 8SM TS BKN036CB BKN047 OVC090 25/23 A3011
RMK AO2 RAE13 OCNL LTGICCG OHD TS OHD MOV NE P0016





000
SAUS42 KCHS 051909
MTRSAV
SPECI KSAV 051908Z 03010KT 2SM R10/5000VP6000FT TSRA BKN036CB BKN047
OVC090 24/21 A3011 RMK AO2 VIS 1V5 PRESFR OCNL LTGICCG OHD TS OHD
MOV NE P0015





000
SAUS42 KCHS 051857
MTRNBC
METAR KNBC 051856Z AUTO 20003KT 10SM TS CLR 26/23 A3013 RMK AO2
RAE32 TSB51B56 SLP204 P0008 T02560233





000
SAUS42 KCHS 051857
MTRNBC
METAR KNBC 051856Z AUTO 20003KT 10SM TS CLR 26/23 A3013 RMK AO2
RAE32 TSB51B56 SLP204 P0008 T02560233





000
SAUS42 KCHS 051854
MTRSAV
METAR KSAV 051853Z VRB06G29KT 1 1/4SM R10/1600VP6000FT TSRA SCT025CB
BKN040 BKN080 OVC180 25/19 A3014 RMK AO2 PK WND 29029/1845 RAB00
SLP206 OCNL LTGICCA OHD-NE-E TS OHD-NE-E MOV NE CB SW-S MOV NE P0031
T02500194





000
SAUS42 KCHS 051848
MTRSAV
SPECI KSAV 051847Z 33013G29KT 300V360 3/4SM R10/1200V4500FT +TSRA
SCT025CB BKN040 BKN080 OVC180 24/21 A3014 RMK AO2 PK WND 29029/1845
RAB00 OCNL LTGICCA OHD-NE-E TS OHD-NE-E MOV NE CB SW-S MOV NE P0017





000
SAUS42 KCHS 051846
MTRSAV
SPECI KSAV 051844Z 31009KT 1 1/2SM R10/1200VP6000FT +TSRA BR
SCT025CB BKN040 BKN080 OVC180 24/22 A3016 RMK AO2 RAB00 OCNL LTGICCA
OHD-NE-E TS OHD-NE-E MOV NE CB SW MOV NE P0012





000
SAUS42 KCHS 051841
MTRSAV
SPECI KSAV 051839Z 31009KT 2SM R10/3000VP6000FT +TSRA SCT028CB
BKN040 BKN080 BKN250 25/22 A3015 RMK AO2 VIS 1 1/4V5 RAB00 PRESRR
OCNL LTGICCA OHD-NE-E TS OHD-NE-E MOV NE CB SW MOV NE P0003





000
SAUS42 KCHS 051820
MTRNBC
SPECI KNBC 051819Z AUTO 24004KT 5SM -TSRA BR FEW043 BKN070 OVC090
24/22 A3014 RMK AO2 P0008 T02440222





000
SAUS42 KCHS 051812
MTRNBC
SPECI KNBC 051810Z AUTO 25005KT 2SM TSRA BR BKN041 BKN050 OVC080
23/21 A3014 RMK AO2 VIS 1 1/4V4 P0007 T02330211





000
SAUS42 KCHS 051812
MTRNBC
SPECI KNBC 051810Z AUTO 25005KT 2SM TSRA BR BKN041 BKN050 OVC080
23/21 A3014 RMK AO2 VIS 1 1/4V4 P0007 T02330211





000
SAUS42 KCHS 051807
MTRNBC
SPECI KNBC 051806Z AUTO 25007KT 1 1/4SM +TSRA FEW032 BKN043 OVC070
23/21 A3014 RMK AO2 P0007 T02330206





000
SAUS42 KCHS 051807
MTRNBC
SPECI KNBC 051806Z AUTO 25007KT 1 1/4SM +TSRA FEW032 BKN043 OVC070
23/21 A3014 RMK AO2 P0007 T02330206





000
SAUS42 KCHS 051757
MTRNBC
METAR KNBC 051756Z AUTO 27016G26KT 3/4SM +TSRA FEW026 BKN036 OVC070
24/21 A3015 RMK AO2 PK WND 27026/1748 VIS 1/4V5 RAB49 TSB00B09
SLP209 P0012 60012 T02390211 10322 20239 55004





000
SAUS42 KCHS 051755
MTRNBC
SPECI KNBC 051754Z AUTO 26016G26KT 3/4SM +TSRA SCT033 BKN041 BKN055
24/21 A3015 RMK AO2 PK WND 27026/1748 VIS 1/4V5 RAB49 TSB00B09 P0007





000
SAUS42 KCHS 051755
MTRNBC
SPECI KNBC 051754Z AUTO 26016G26KT 3/4SM +TSRA SCT033 BKN041 BKN055
24/21 A3015 RMK AO2 PK WND 27026/1748 VIS 1/4V5 RAB49 TSB00B09 P0007





000
SAUS42 KCHS 051755
MTRSAV
METAR KSAV 051753Z 01010KT 10SM TS SCT028CB SCT035 BKN100 BKN250
28/22 A3012 RMK AO2 RAB37E48 SLP199 OCNL LTGICCACG OHD-NE-E TS
OHD-NE-E MOV NE P0000 60000 T02830222 10333 20233 55012





000
SAUS42 KCHS 051755
MTRSAV
METAR KSAV 051753Z 01010KT 10SM TS SCT028CB SCT035 BKN100 BKN250
28/22 A3012 RMK AO2 RAB37E48 SLP199 OCNL LTGICCACG OHD-NE-E TS
OHD-NE-E MOV NE P0000 60000 T02830222 10333 20233 55012





000
SAUS42 KCHS 051751
MTRNBC
SPECI KNBC 051749Z AUTO 27019G26KT 1 1/4SM -TSRA SCT033 BKN041
BKN050 25/20 A3016 RMK AO2 PK WND 27026/1748 RAB49 TSB00B09 P0001
T02500200





000
SAUS42 KCHS 051751
MTRNBC
SPECI KNBC 051749Z AUTO 27019G26KT 1 1/4SM -TSRA SCT033 BKN041
BKN050 25/20 A3016 RMK AO2 PK WND 27026/1748 RAB49 TSB00B09 P0001
T02500200





000
SAUS42 KCHS 051708
MTRNBC
SPECI KNBC 051706Z AUTO 17004KT 10SM TS FEW035 32/23 A3013 RMK AO2
TSB00 T03220233





000
SAUS42 KCHS 051708
MTRNBC
SPECI KNBC 051706Z AUTO 17004KT 10SM TS FEW035 32/23 A3013 RMK AO2
TSB00 T03220233





000
SAUS42 KCHS 051658
MTRNBC
METAR KNBC 051656Z AUTO 16003KT 10SM FEW035 32/24 A3013 RMK AO2
SLP203 T03220239





000
SAUS42 KCHS 051655
MTRSAV
METAR KSAV 051653Z 21008KT 10SM TS SCT028CB SCT035 BKN250 32/22
A3012 RMK AO2 TSB25 SLP199 OCNL LTGICCA NE TS NE MOV NE T03170222





000
SAUS42 KCHS 051655
MTRSAV
METAR KSAV 051653Z 21008KT 10SM TS SCT028CB SCT035 BKN250 32/22
A3012 RMK AO2 TSB25 SLP199 OCNL LTGICCA NE TS NE MOV NE T03170222





000
SAUS42 KCHS 051628
MTRSAV
SPECI KSAV 051626Z 20010KT 10SM TS SCT028CB SCT035 BKN250 32/23
A3013 RMK AO2 TSB25 OCNL LTGICCA N TS N MOV NE





000
SAUS42 KCHS 051557
MTRNBC
METAR KNBC 051556Z AUTO 23008KT 10SM CLR 31/23 A3015 RMK AO2 SLP209
T03060228





000
SAUS42 KCHS 051554
MTRSAV
METAR KSAV 051553Z VRB06KT 10SM FEW028 SCT035 SCT250 31/22 A3015 RMK
AO2 SLP207 T03110222





000
SAUS42 KCHS 051457
MTRNBC
METAR KNBC 051456Z 24007KT 10SM FEW025 FEW200 29/23 A3016 RMK AO2
SLP213 T02940228 50003





000
SAUS42 KCHS 051454
MTRSAV
METAR KSAV 051453Z 23008KT 10SM FEW035 SCT250 30/23 A3016 RMK AO2
SLP212 T03000228 50001





000
SAUS42 KCHS 051454
MTRSAV
METAR KSAV 051453Z 23008KT 10SM FEW035 SCT250 30/23 A3016 RMK AO2
SLP212 T03000228 50001





000
SAUS42 KCHS 051357
MTRNBC
METAR KNBC 051356Z VRB05KT 10SM FEW200 28/22 A3016 RMK AO2 SLP214
T02830222





000
SAUS42 KCHS 051355
MTRSAV
METAR KSAV 051353Z 23006KT 10SM FEW250 28/22 A3016 RMK AO2 SLP213
T02830222





000
SAUS42 KCHS 051355
MTRSAV
METAR KSAV 051353Z 23006KT 10SM FEW250 28/22 A3016 RMK AO2 SLP213
T02830222





000
SAUS42 KCHS 051346
MTRNBC
SPECI KNBC 051344Z 24005KT 10SM FEW200 28/22 A3016 RMK AO2 FIRST
T02780222





000
SAUS42 KCHS 051257
MTRNBC
METAR KNBC 051256Z AUTO 24007KT 10SM CLR 26/22 A3016 RMK AO2 SLP213
T02610217





000
SAUS42 KCHS 051255
MTRSAV
METAR KSAV 051253Z 22006KT 10SM FEW150 SCT250 26/21 A3016 RMK AO2
SLP212 T02610211





000
SAUS42 KCHS 051157
MTRNBC
METAR KNBC 051156Z AUTO 21003KT 10SM CLR 24/22 A3015 RMK AO2 SLP210
70025 T02390217 10239 20228 51016





000
SAUS42 KCHS 051157
MTRNBC
METAR KNBC 051156Z AUTO 21003KT 10SM CLR 24/22 A3015 RMK AO2 SLP210
70025 T02390217 10239 20228 51016





000
SAUS42 KCHS 051155
MTRSAV
METAR KSAV 051153Z 28003KT 10SM SCT150 SCT250 23/21 A3016 RMK AO2
SLP211 T02330206 10233 20217 53013





000
SAUS42 KCHS 051057
MTRNBC
METAR KNBC 051056Z AUTO 24004KT 10SM CLR 23/21 A3014 RMK AO2 SLP207
T02280206





000
SAUS42 KCHS 051057
MTRNBC
METAR KNBC 051056Z AUTO 24004KT 10SM CLR 23/21 A3014 RMK AO2 SLP207
T02280206





000
SAUS42 KCHS 051054
MTRSAV
METAR KSAV 051053Z 00000KT 10SM SCT150 SCT250 22/20 A3014 RMK AO2
SLP206 T02170200





000
SAUS42 KCHS 051054
MTRSAV
METAR KSAV 051053Z 00000KT 10SM SCT150 SCT250 22/20 A3014 RMK AO2
SLP206 T02170200





000
SAUS42 KCHS 050957
MTRNBC
METAR KNBC 050956Z AUTO 24006KT 10SM CLR 23/21 A3013 RMK AO2 SLP202
T02280211





000
SAUS42 KCHS 050954
MTRSAV
METAR KSAV 050953Z 21005KT 10SM SCT150 SCT250 22/20 A3013 RMK AO2
SLP202 FIRST AUGMENTED OBSERVATION T02220200





000
SAUS42 KCHS 050857
MTRNBC
METAR KNBC 050856Z AUTO 25003KT 10SM CLR 23/21 A3010 RMK AO2 SLP194
T02330211 53001





000
SAUS42 KCHS 050854
MTRSAV
METAR KSAV 050853Z AUTO 27004KT 10SM CLR 22/21 A3012 RMK AO2 SLP198
T02220206 53001 TSNO





000
SAUS42 KCHS 050854
MTRSAV
METAR KSAV 050853Z AUTO 27004KT 10SM CLR 22/21 A3012 RMK AO2 SLP198
T02220206 53001 TSNO





000
SAUS42 KCHS 050758
MTRNBC
METAR KNBC 050756Z AUTO 23005KT 10SM CLR 23/22 A3010 RMK AO2 SLP193
T02330217





000
SAUS42 KCHS 050758
MTRNBC
METAR KNBC 050756Z AUTO 23005KT 10SM CLR 23/22 A3010 RMK AO2 SLP193
T02330217





000
SAUS42 KCHS 050755
MTRSAV
METAR KSAV 050753Z AUTO 18004KT 10SM CLR 23/21 A3010 RMK AO2 SLP191
T02280206 TSNO





000
SAUS42 KCHS 050658
MTRNBC
METAR KNBC 050656Z AUTO 21005KT 9SM CLR 23/22 A3010 RMK AO2 SLP193
T02330222





000
SAUS42 KCHS 050658
MTRNBC
METAR KNBC 050656Z AUTO 21005KT 9SM CLR 23/22 A3010 RMK AO2 SLP193
T02330222





000
SAUS42 KCHS 050655
MTRSAV
METAR KSAV 050653Z AUTO 20006KT 10SM CLR 23/21 A3011 RMK AO2 SLP194
T02280206 TSNO





000
SAUS42 KCHS 050655
MTRSAV
METAR KSAV 050653Z AUTO 20006KT 10SM CLR 23/21 A3011 RMK AO2 SLP194
T02280206 TSNO





000
SAUS42 KCHS 050557
MTRNBC
METAR KNBC 050556Z AUTO 19003KT 9SM CLR 23/22 A3010 RMK AO2 SLP193
60000 T02330222 10239 20228 58005





000
SAUS42 KCHS 050557
MTRNBC
METAR KNBC 050556Z AUTO 19003KT 9SM CLR 23/22 A3010 RMK AO2 SLP193
60000 T02330222 10239 20228 58005





000
SAUS42 KCHS 050554
MTRSAV
METAR KSAV 050553Z AUTO 22006KT 10SM CLR 23/21 A3012 RMK AO2 SLP197
60000 T02280206 10239 20228 56005 TSNO





000
SAUS42 KCHS 050554
MTRSAV
METAR KSAV 050553Z AUTO 22006KT 10SM CLR 23/21 A3012 RMK AO2 SLP197
60000 T02280206 10239 20228 56005 TSNO





000
SAUS42 KCHS 050457
MTRNBC
METAR KNBC 050456Z AUTO 19003KT 8SM CLR 23/22 A3011 RMK AO2 SLP196
T02330222 403390228





000
SAUS42 KCHS 050455
MTRSAV
METAR KSAV 050453Z AUTO 21003KT 10SM CLR 23/21 A3012 RMK AO2 SLP198
T02280206 403330228 TSNO





000
SAUS42 KCHS 050357
MTRNBC
METAR KNBC 050356Z AUTO 20004KT 9SM CLR 23/22 A3012 RMK AO2 SLP199
T02330222





000
SAUS42 KCHS 050357
MTRNBC
METAR KNBC 050356Z AUTO 20004KT 9SM CLR 23/22 A3012 RMK AO2 SLP199
T02330222





000
SAUS42 KCHS 050354
MTRSAV
METAR KSAV 050353Z 23004KT 10SM SCT250 23/21 A3012 RMK AO2 SLP200
LAST AUGMENTED OBSERVATION UNTIL 1000Z T02330211





000
SAUS42 KCHS 050258
MTRNBC
METAR KNBC 050256Z AUTO 23005KT 8SM CLR 23/22 A3012 RMK AO2 SLP198
60000 T02330217 53004





000
SAUS42 KCHS 050254
MTRSAV
METAR KSAV 050253Z 22007KT 8SM SCT250 23/22 A3013 RMK AO2 SLP202
60000 T02330217 53015





000
SAUS42 KCHS 050157
MTRNBC
METAR KNBC 050156Z AUTO 26004KT 10SM CLR 23/22 A3010 RMK AO2 SLP192
T02330222





000
SAUS42 KCHS 050154
MTRSAV
METAR KSAV 050153Z 19003KT 10SM SCT140 BKN250 24/21 A3011 RMK AO2
SLP194 T02390211





000
SAUS42 KCHS 050154
MTRSAV
METAR KSAV 050153Z 19003KT 10SM SCT140 BKN250 24/21 A3011 RMK AO2
SLP194 T02390211





000
SAUS42 KCHS 050057
MTRNBC
METAR KNBC 050056Z AUTO 20003KT 10SM FEW080 SCT110 23/23 A3008 RMK
AO2 RAB28E47 TSE05 SLP186 P0000 T02330228





000
SAUS42 KCHS 050057
MTRNBC
METAR KNBC 050056Z AUTO 20003KT 10SM FEW080 SCT110 23/23 A3008 RMK
AO2 RAB28E47 TSE05 SLP186 P0000 T02330228





000
SAUS42 KCHS 050054
MTRSAV
METAR KSAV 050053Z 15003KT 10SM BKN140 BKN250 23/21 A3008 RMK AO2
RAE02 SLP186 P0000 T02330211





000
SAUS42 KCHS 050012
MTRNBC
SPECI KNBC 050011Z AUTO 00000KT 10SM CLR 23/22 A3010 RMK AO2 TSE05
T02330222





000
SAUS42 KCHS 042357
MTRNBC
METAR KNBC 042356Z AUTO 00000KT 10SM TS CLR 23/22 A3010 RMK AO2
RAE05 SLP194 P0000 60025 T02330222 10339 20228 51016





000
SAUS42 KCHS 042357
MTRNBC
METAR KNBC 042356Z AUTO 00000KT 10SM TS CLR 23/22 A3010 RMK AO2
RAE05 SLP194 P0000 60025 T02330222 10339 20228 51016





000
SAUS42 KCHS 042354
MTRSAV
METAR KSAV 042353Z 18005KT 10SM -RA FEW060 SCT090 BKN110 23/21 A3009
RMK AO2 TSE48RAB07 SLP188 TS MOV NE P0000 60000 T02330211 10333
20233 50012





000
SAUS42 KCHS 042354
MTRSAV
METAR KSAV 042353Z 18005KT 10SM -RA FEW060 SCT090 BKN110 23/21 A3009
RMK AO2 TSE48RAB07 SLP188 TS MOV NE P0000 60000 T02330211 10333
20233 50012





000
SAUS42 KCHS 042328
MTRNBC
SPECI KNBC 042327Z AUTO 18004KT 10SM TS FEW002 SCT110 23/22 A3011
RMK AO2 RAE05 P0000 T02330222





000
SAUS42 KCHS 042328
MTRNBC
SPECI KNBC 042327Z AUTO 18004KT 10SM TS FEW002 SCT110 23/22 A3011
RMK AO2 RAE05 P0000 T02330222





000
SAUS42 KCHS 042302
MTRNBC
SPECI KNBC 042300Z AUTO 15003KT 4SM -TSRA BKN031 BKN046 OVC110 23/22
A3010 RMK AO2 P0000 T02280222





000
SAUS42 KCHS 042257
MTRNBC
METAR KNBC 042256Z AUTO 00000KT 1 1/4SM TSRA BKN044 BKN060 OVC110
23/22 A3010 RMK AO2 PK WND 25032/2236 WSHFT 2221 RAB32 TSB25B26
SLP193 P0025 T02280217





000
SAUS42 KCHS 042257
MTRNBC
METAR KNBC 042256Z AUTO 00000KT 1 1/4SM TSRA BKN044 BKN060 OVC110
23/22 A3010 RMK AO2 PK WND 25032/2236 WSHFT 2221 RAB32 TSB25B26
SLP193 P0025 T02280217





000
SAUS42 KCHS 042254
MTRSAV
METAR KSAV 042253Z 18012KT 10SM TS FEW030 SCT060CB BKN090 BKN140
24/21 A3011 RMK AO2 PK WND 19029/2234 SLP194 OCNL LTGCG NE-S TS NE-S
MOV NE T02440206





000
SAUS42 KCHS 042247
MTRNBC
SPECI KNBC 042246Z AUTO 24008G28KT 3/4SM +TSRA FEW028 BKN037 OVC045
23/22 A3009 RMK AO2 PK WND 25032/2236 WSHFT 2221 RAB32 TSB25B26
P0020 T02280217





000
SAUS42 KCHS 042242
MTRNBC
SPECI KNBC 042240Z AUTO 24017G32KT 1/2SM +TSRA BKN029 BKN038 OVC048
23/22 A3009 RMK AO2 PK WND 25032/2236 WSHFT 2221 RAB32 TSB25B26
P0012 T02330217





000
SAUS42 KCHS 042237
MTRNBC
SPECI KNBC 042236Z AUTO 25021G32KT 1SM +TSRA FEW019 BKN042 OVC050
25/22 A3010 RMK AO2 PK WND 25032/2236 WSHFT 2221 RAB32 TSB25B26
P0008 T02500217





000
SAUS42 KCHS 042237
MTRNBC
SPECI KNBC 042236Z AUTO 25021G32KT 1SM +TSRA FEW019 BKN042 OVC050
25/22 A3010 RMK AO2 PK WND 25032/2236 WSHFT 2221 RAB32 TSB25B26
P0008 T02500217





000
SAUS42 KCHS 042232
MTRNBC
SPECI KNBC 042231Z AUTO 23019G31KT 9SM TS FEW022 BKN035 OVC060 28/22
A3010 RMK AO2 PK WND 25031/2231 TSB25B26 PRESRR T02780217





000
SAUS42 KCHS 042224
MTRNBC
SPECI KNBC 042223Z AUTO 18012G18KT 10SM VCTS SCT032 BKN038 OVC060
29/24 A3008 RMK AO2 PRESRR T02940244





000
SAUS42 KCHS 042157
MTRNBC
METAR KNBC 042156Z AUTO 16007KT 10SM FEW050 FEW060 30/25 A3006 RMK
AO2 SLP180 T03000250





000
SAUS42 KCHS 042155
MTRSAV
METAR KSAV 042153Z VRB04G22KT 10SM TS SCT060CB SCT075 BKN085 BKN250
26/19 A3009 RMK AO2 PK WND 27035/2127 WSHFT 2124 TSB32 SLP187 OCNL
LTGICCCCG NE-S TS NE-S MOV NE T02610194





000
SAUS42 KCHS 042155
MTRSAV
METAR KSAV 042153Z VRB04G22KT 10SM TS SCT060CB SCT075 BKN085 BKN250
26/19 A3009 RMK AO2 PK WND 27035/2127 WSHFT 2124 TSB32 SLP187 OCNL
LTGICCCCG NE-S TS NE-S MOV NE T02610194





000
SAUS42 KCHS 042145
MTRSAV
SPECI KSAV 042144Z 31014G25KT 10SM TS SCT065CB BKN085 BKN250 27/19
A3006 RMK AO2 PK WND 27035/2127 WSHFT 2124 TSB32 OCNL LTGICCCCG
S-W-NW TS S-W MOV NE





000
SAUS42 KCHS 042145
MTRSAV
SPECI KSAV 042144Z 31014G25KT 10SM TS SCT065CB BKN085 BKN250 27/19
A3006 RMK AO2 PK WND 27035/2127 WSHFT 2124 TSB32 OCNL LTGICCCCG
S-W-NW TS S-W MOV NE





000
SAUS42 KCHS 042134
MTRSAV
SPECI KSAV 042133Z 30023G35KT 10SM TS SCT065CB BKN085 BKN250 29/18
A3007 RMK AO2 PK WND 27035/2127 TSB32 OCNL LTGICCCCG S-W-NW TS S-W
MOV NE





000
SAUS42 KCHS 042057
MTRNBC
METAR KNBC 042056Z AUTO 24006KT 10SM FEW048 33/21 A3006 RMK AO2
SLP178 T03280211 55010





000
SAUS42 KCHS 042054
MTRSAV
METAR KSAV 042053Z 26007KT 10SM SCT055 BKN250 33/20 A3005 RMK AO2
SLP176 T03330200 56012





000
SAUS42 KCHS 041957
MTRNBC
METAR KNBC 041956Z AUTO 28007KT 10SM CLR 33/21 A3005 RMK AO2 SLP177
T03280211





000
SAUS42 KCHS 041957
MTRNBC
METAR KNBC 041956Z AUTO 28007KT 10SM CLR 33/21 A3005 RMK AO2 SLP177
T03280211





000
SAUS42 KCHS 041954
MTRSAV
METAR KSAV 041953Z 34003KT 10SM SCT049 BKN150 BKN250 33/21 A3006 RMK
AO2 SLP177 T03280206





000
SAUS42 KCHS 041857
MTRNBC
METAR KNBC 041856Z AUTO 32006KT 10SM CLR 31/22 A3007 RMK AO2 SLP181
T03110217





000
SAUS42 KCHS 041855
MTRSAV
METAR KSAV 041853Z 28005KT 10SM SCT044 BKN150 BKN250 33/21 A3006 RMK
AO2 SLP178 T03280206





000
SAUS42 KCHS 041855
MTRSAV
METAR KSAV 041853Z 28005KT 10SM SCT044 BKN150 BKN250 33/21 A3006 RMK
AO2 SLP178 T03280206





000
SAUS42 KCHS 041757
MTRNBC
METAR KNBC 041756Z AUTO 27009KT 10SM CLR 32/22 A3009 RMK AO2 SLP188
T03170217 10322 20256 58001





000
SAUS42 KCHS 041754
MTRSAV
METAR KSAV 041753Z 26010KT 10SM SCT045 SCT150 BKN250 33/21 A3009 RMK
AO2 SLP188 T03280206 10333 20250 58003





000
SAUS42 KCHS 041754
MTRSAV
METAR KSAV 041753Z 26010KT 10SM SCT045 SCT150 BKN250 33/21 A3009 RMK
AO2 SLP188 T03280206 10333 20250 58003





000
SAUS42 KCHS 041658
MTRNBC
METAR KNBC 041656Z AUTO 24009KT 10SM BKN039 31/22 A3010 RMK AO2
SLP191 T03110222





000
SAUS42 KCHS 041655
MTRSAV
METAR KSAV 041653Z 24009KT 10SM SCT042 SCT150 BKN250 32/22 A3010 RMK
AO2 SLP193 T03220217





000
SAUS42 KCHS 041557
MTRNBC
METAR KNBC 041556Z AUTO 10SM CLR 31/22 A3009 RMK AO2 SLP191
T03110222





000
SAUS42 KCHS 041555
MTRSAV
METAR KSAV 041553Z 24011KT 10SM FEW042 SCT150 BKN250 32/22 A3010 RMK
AO2 SLP193 T03170217





000
SAUS42 KCHS 041457
MTRNBC
METAR KNBC 041456Z AUTO VRB05KT 10SM CLR 29/21 A3009 RMK AO2 SLP189
T02940211 53004





000
SAUS42 KCHS 041455
MTRSAV
METAR KSAV 041453Z 20004KT 10SM FEW040 SCT150 BKN250 29/22 A3010 RMK
AO2 SLP192 T02940222 53003





000
SAUS42 KCHS 041358
MTRNBC
METAR KNBC 041356Z AUTO 24005KT 10SM CLR 27/19 A3009 RMK AO2 SLP189
T02720194





000
SAUS42 KCHS 041355
MTRSAV
METAR KSAV 041353Z 00000KT 10SM FEW040 SCT150 BKN250 27/21 A3010 RMK
AO2 SLP190 T02720206





000
SAUS42 KCHS 041355
MTRSAV
METAR KSAV 041353Z 00000KT 10SM FEW040 SCT150 BKN250 27/21 A3010 RMK
AO2 SLP190 T02720206





000
SAUS42 KCHS 041257
MTRNBC
METAR KNBC 041256Z AUTO 27003KT 10SM CLR 27/21 A3007 RMK AO2 SLP184
T02670206





000
SAUS42 KCHS 041254
MTRSAV
METAR KSAV 041253Z 00000KT 10SM FEW040 SCT140 BKN250 27/21 A3008 RMK
AO2 SLP186 T02670211





000
SAUS42 KCHS 041254
MTRSAV
METAR KSAV 041253Z 00000KT 10SM FEW040 SCT140 BKN250 27/21 A3008 RMK
AO2 SLP186 T02670211





000
SAUS42 KCHS 041157
MTRNBC
METAR KNBC 041156Z AUTO 30007KT 10SM CLR 26/22 A3008 RMK AO2 SLP185
70010 T02560217 10272 20244 53013





000
SAUS42 KCHS 041157
MTRNBC
METAR KNBC 041156Z AUTO 30007KT 10SM CLR 26/22 A3008 RMK AO2 SLP185
70010 T02560217 10272 20244 53013





000
SAUS42 KCHS 041155
MTRSAV
METAR KSAV 041153Z 27003KT 10SM FEW040 SCT140 BKN250 25/22 A3009 RMK
AO2 SLP188 T02500222 10261 20239 53014





000
SAUS42 KCHS 041057
MTRNBC
METAR KNBC 041056Z AUTO 32004KT 10SM CLR 25/23 A3008 RMK AO2 PRESRR
SLP184 T02500228





000
SAUS42 KCHS 041054
MTRSAV
METAR KSAV 041053Z 25004KT 10SM FEW040 SCT140 BKN250 24/22 A3008 RMK
AO2 SLP184 T02390217





000
SAUS42 KCHS 041054
MTRSAV
METAR KSAV 041053Z 25004KT 10SM FEW040 SCT140 BKN250 24/22 A3008 RMK
AO2 SLP184 T02390217





000
SAUS42 KCHS 040957
MTRNBC
METAR KNBC 040956Z AUTO 24005KT 10SM CLR 25/23 A3004 RMK AO2 SLP172
T02500228





000
SAUS42 KCHS 040954
MTRSAV
METAR KSAV 040953Z 23003KT 10SM SCT250 24/22 A3006 RMK AO2 SLP178
FIRST AUGMENTED OBSERVATION T02390217





000
SAUS42 KCHS 040857
MTRNBC
METAR KNBC 040856Z AUTO 29003KT 10SM SCT060 25/23 A3004 RMK AO2
SLP172 T02500228 53004





000
SAUS42 KCHS 040854
MTRSAV
METAR KSAV 040853Z AUTO 23006KT 10SM CLR 25/22 A3005 RMK AO2 SLP175
T02500217 53005 TSNO





000
SAUS42 KCHS 040854
MTRSAV
METAR KSAV 040853Z AUTO 23006KT 10SM CLR 25/22 A3005 RMK AO2 SLP175
T02500217 53005 TSNO





000
SAUS42 KCHS 040757
MTRNBC
METAR KNBC 040756Z AUTO 35003KT 10SM CLR 26/23 A3002 RMK AO2 SLP167
T02610228





000
SAUS42 KCHS 040755
MTRSAV
METAR KSAV 040753Z AUTO 20006KT 10SM CLR 26/22 A3003 RMK AO2 SLP168
T02560217 TSNO





000
SAUS42 KCHS 040755
MTRSAV
METAR KSAV 040753Z AUTO 20006KT 10SM CLR 26/22 A3003 RMK AO2 SLP168
T02560217 TSNO





000
SAUS42 KCHS 040657
MTRNBC
METAR KNBC 040656Z AUTO 00000KT 10SM CLR 27/23 A3002 RMK AO2 SLP165
T02670233





000
SAUS42 KCHS 040654
MTRSAV
METAR KSAV 040653Z AUTO 21004KT 10SM CLR 26/22 A3003 RMK AO2 SLP167
T02610217 TSNO





000
SAUS42 KCHS 040557
MTRNBC
METAR KNBC 040556Z AUTO 21005KT 10SM CLR 27/23 A3003 RMK AO2 SLP169
T02670233 10283 20267 58001





000
SAUS42 KCHS 040554
MTRSAV
METAR KSAV 040553Z AUTO 21006KT 10SM CLR 26/22 A3003 RMK AO2 SLP170
T02610222 10300 20261 58003 TSNO





000
SAUS42 KCHS 040458
MTRNBC
METAR KNBC 040456Z AUTO 20006KT 10SM CLR 27/24 A3003 RMK AO2 SLP168
T02720239 403330222





000
SAUS42 KCHS 040454
MTRSAV
METAR KSAV 040453Z AUTO 19008KT 10SM CLR 27/22 A3004 RMK AO2 SLP172
T02670222 403440217 TSNO





000
SAUS42 KCHS 040357
MTRNBC
METAR KNBC 040356Z AUTO 20007KT 10SM CLR 28/24 A3004 RMK AO2 SLP171
T02780244





000
SAUS42 KCHS 040354
MTRSAV
METAR KSAV 040353Z 19008KT 10SM CLR 27/23 A3004 RMK AO2 SLP173 LAST
AUGMENTED OBSERVATION UNTIL 1000Z T02670228





000
SAUS42 KCHS 040257
MTRNBC
METAR KNBC 040256Z AUTO 19004KT 10SM CLR 27/24 A3003 RMK AO2 SLP170
T02720244 53011





000
SAUS42 KCHS 040255
MTRSAV
METAR KSAV 040253Z 19009KT 10SM CLR 27/22 A3004 RMK AO2 SLP173
T02720222 53016





000
SAUS42 KCHS 040157
MTRNBC
METAR KNBC 040156Z AUTO 19003KT 10SM CLR 27/25 A3001 RMK AO2 SLP161
T02720250





000
SAUS42 KCHS 040157
MTRNBC
METAR KNBC 040156Z AUTO 19003KT 10SM CLR 27/25 A3001 RMK AO2 SLP161
T02720250





000
SAUS42 KCHS 040155
MTRSAV
METAR KSAV 040153Z 20006KT 10SM SCT250 28/19 A3001 RMK AO2 SLP162
T02830194





000
SAUS42 KCHS 040057
MTRNBC
METAR KNBC 040056Z AUTO 16004KT 10SM CLR 28/24 A3000 RMK AO2 SLP158
T02780244





000
SAUS42 KCHS 040054
MTRSAV
METAR KSAV 040053Z 17003KT 10SM SCT250 28/22 A3001 RMK AO2 SLP160
T02830217





000
SAUS42 KCHS 040054
MTRSAV
METAR KSAV 040053Z 17003KT 10SM SCT250 28/22 A3001 RMK AO2 SLP160
T02830217





000
SAUS42 KCHS 032357
MTRNBC
METAR KNBC 032356Z AUTO 00000KT 10SM CLR 28/23 A3000 RMK AO2 SLP159
60010 T02830228 10333 20233 50001





000
SAUS42 KCHS 032354
MTRSAV
METAR KSAV 032353Z 05003KT 10SM SCT250 30/22 A3000 RMK AO2 SLP157
T03000222 10344 20300 55000





000
SAUS42 KCHS 032257
MTRNBC
METAR KNBC 032256Z AUTO 23005KT 10SM CLR 29/22 A3000 RMK AO2 SLP159
T02940217





000
SAUS42 KCHS 032254
MTRSAV
METAR KSAV 032253Z 00000KT 10SM SCT250 32/21 A2999 RMK AO2 SLP155
T03220211





000
SAUS42 KCHS 032157
MTRNBC
METAR KNBC 032156Z AUTO 31007KT 10SM CLR 29/22 A3000 RMK AO2
RAB02E11 SLP159 P0000 T02940222





000
SAUS42 KCHS 032154
MTRSAV
METAR KSAV 032153Z 33004KT 10SM FEW070 BKN250 32/21 A3000 RMK AO2
SLP158 T03220206





000
SAUS42 KCHS 032057
MTRNBC
METAR KNBC 032056Z AUTO 27007KT 10SM FEW055 FEW070 SCT120 28/21
A2999 RMK AO2 SLP157 60010 T02830211 58001





000
SAUS42 KCHS 032054
MTRSAV
METAR KSAV 032053Z 32007KT 10SM FEW070 SCT250 31/20 A3000 RMK AO2 PK
WND 26026/2002 WSHFT 2013 SLP157 T03110200 56006





000
SAUS42 KCHS 032054
MTRSAV
METAR KSAV 032053Z 32007KT 10SM FEW070 SCT250 31/20 A3000 RMK AO2 PK
WND 26026/2002 WSHFT 2013 SLP157 T03110200 56006





000
SAUS42 KCHS 032032
MTRSAV
SPECI KSAV 032031Z 34011G24KT 10SM BKN070 BKN250 32/21 A3000 RMK AO2
PK WND 26026/2002 WSHFT 2013





000
SAUS42 KCHS 031957
MTRNBC
METAR KNBC 031956Z AUTO 28008G16KT 10SM CLR 27/21 A3000 RMK AO2 PK
WND 30031/1857 WSHFT 1843 RAE33 SLP158 P0008 T02720211





000
SAUS42 KCHS 031954
MTRSAV
METAR KSAV 031953Z 28017G24KT 10SM SCT070 BKN250 34/18 A3000 RMK AO2
SLP157 T03390178





000
SAUS42 KCHS 031954
MTRSAV
METAR KSAV 031953Z 28017G24KT 10SM SCT070 BKN250 34/18 A3000 RMK AO2
SLP157 T03390178





000
SAUS42 KCHS 031931
MTRNBC
SPECI KNBC 031931Z AUTO 26008KT 10SM -RA FEW055 SCT070 BKN100 24/21
A3001 RMK AO2 PK WND 30031/1857 WSHFT 1843 P0008 T02390211





000
SAUS42 KCHS 031918
MTRNBC
SPECI KNBC 031917Z AUTO 29010KT 10SM VCTS -RA SCT046 BKN065 OVC110
23/21 A3002 RMK AO2 PK WND 30031/1857 WSHFT 1843 P0008 T02330211





000
SAUS42 KCHS 031910
MTRNBC
SPECI KNBC 031909Z AUTO 30014G21KT 2SM VCTS RA BKN047 BKN065 OVC090
23/21 A3003 RMK AO2 PK WND 30031/1857 WSHFT 1843 VIS 1V5 P0008
T02330211





000
SAUS42 KCHS 031910
MTRNBC
SPECI KNBC 031909Z AUTO 30014G21KT 2SM VCTS RA BKN047 BKN065 OVC090
23/21 A3003 RMK AO2 PK WND 30031/1857 WSHFT 1843 VIS 1V5 P0008
T02330211





000
SAUS42 KCHS 031908
MTRNBC
SPECI KNBC 031907Z AUTO 30014G24KT 1 1/4SM VCTS RA BKN045 BKN060
OVC080 23/21 A3003 RMK AO2 PK WND 30031/1857 WSHFT 1843 VIS 1/2V4
P0008 T02330211





000
SAUS42 KCHS 031908
MTRNBC
SPECI KNBC 031907Z AUTO 30014G24KT 1 1/4SM VCTS RA BKN045 BKN060
OVC080 23/21 A3003 RMK AO2 PK WND 30031/1857 WSHFT 1843 VIS 1/2V4
P0008 T02330211





000
SAUS42 KCHS 031904
MTRNBC
SPECI KNBC 031902Z AUTO 31016G35KT 1SM +RA FEW032 SCT046 BKN065
23/21 A3004 RMK AO2 PK WND 30031/1857 WSHFT 1843 P0006 T02330206





000
SAUS42 KCHS 031904
MTRNBC
SPECI KNBC 031902Z AUTO 31016G35KT 1SM +RA FEW032 SCT046 BKN065
23/21 A3004 RMK AO2 PK WND 30031/1857 WSHFT 1843 P0006 T02330206





000
SAUS42 KCHS 031859
MTRNBC
SPECI KNBC 031858Z AUTO 30022G38KT 1 3/4SM RA SCT046 SCT055 BKN070
25/19 A3004 RMK AO2 PK WND 30031/1857 WSHFT 1843 P0003 T02500194





000
SAUS42 KCHS 031857
MTRNBC
METAR KNBC 031856Z AUTO 30026G38KT 4SM -RA SCT046 BKN060 27/19 A3004
RMK AO2 PK WND 30038/1849 WSHFT 1838 RAB50 SLP172 P0002 T02670189





000
SAUS42 KCHS 031854
MTRSAV
METAR KSAV 031853Z 26014G21KT 10SM SCT050 BKN250 34/20 A3000 RMK AO2
PK WND 27027/1803 SLP158 T03390200





000
SAUS42 KCHS 031757
MTRNBC
METAR KNBC 031756Z AUTO 25016G22KT 10SM FEW037 33/22 A3000 RMK AO2
SLP158 T03280217 10328 20228 58010





000
SAUS42 KCHS 031757
MTRNBC
METAR KNBC 031756Z AUTO 25016G22KT 10SM FEW037 33/22 A3000 RMK AO2
SLP158 T03280217 10328 20228 58010





000
SAUS42 KCHS 031754
MTRSAV
METAR KSAV 031753Z 25015G21KT 10SM SCT049 BKN250 33/21 A3001 RMK AO2
SLP163 T03330206 10333 20228 58008





000
SAUS42 KCHS 031658
MTRNBC
METAR KNBC 031656Z AUTO 26013KT 10SM CLR 31/23 A3001 RMK AO2 SLP164
T03110233





000
SAUS42 KCHS 031654
MTRSAV
METAR KSAV 031653Z 24011G19KT 10SM SCT038 SCT250 32/22 A3003 RMK AO2
SLP168 T03220222





000
SAUS42 KCHS 031557
MTRNBC
METAR KNBC 031556Z AUTO 25009KT 10SM FEW022 29/23 A3003 RMK AO2
SLP168 T02940233





000
SAUS42 KCHS 031555
MTRSAV
METAR KSAV 031553Z 26012KT 10SM FEW031 SCT250 31/22 A3004 RMK AO2
SLP171 T03060222





000
SAUS42 KCHS 031523
MTRNBC
SPECI KNBC 031521Z AUTO 25012KT 10SM SCT018 28/23 A3003 RMK AO2
T02830233





000
SAUS42 KCHS 031516
MTRNBC
SPECI KNBC 031513Z AUTO 26012KT 10SM BKN017 28/23 A3003 RMK AO2
T02780228





000
SAUS42 KCHS 031457
MTRNBC
METAR KNBC 031456Z AUTO 25009KT 10SM SCT017 28/23 A3003 RMK AO2
SLP168 T02780228 58007





000
SAUS42 KCHS 031454
MTRSAV
METAR KSAV 031453Z 25015G18KT 10SM FEW020 SCT250 29/22 A3004 RMK AO2
SLP171 T02940222 58004





000
SAUS42 KCHS 031358
MTRNBC
METAR KNBC 031356Z AUTO 26011KT 10SM OVC015 26/22 A3004 RMK AO2
SLP171 T02610222





000
SAUS42 KCHS 031358
MTRNBC
METAR KNBC 031356Z AUTO 26011KT 10SM OVC015 26/22 A3004 RMK AO2
SLP171 T02610222





000
SAUS42 KCHS 031355
MTRSAV
METAR KSAV 031353Z 25012KT 10SM FEW020 SCT250 27/21 A3004 RMK AO2
SLP173 T02720211





000
SAUS42 KCHS 031339
MTRNBC
SPECI KNBC 031337Z AUTO 29007G16KT 10SM BKN015 26/22 A3004 RMK AO2
T02560217





000
SAUS42 KCHS 031257
MTRNBC
METAR KNBC 031256Z AUTO 24007KT 10SM SCT034 25/22 A3004 RMK AO2
SLP174 T02500217





000
SAUS42 KCHS 031257
MTRNBC
METAR KNBC 031256Z AUTO 24007KT 10SM SCT034 25/22 A3004 RMK AO2
SLP174 T02500217





000
SAUS42 KCHS 031254
MTRSAV
METAR KSAV 031253Z 26009KT 10SM FEW015 SCT150 SCT250 25/22 A3005 RMK
AO2 SLP175 T02500217





000
SAUS42 KCHS 031157
MTRNBC
METAR KNBC 031156Z AUTO 25006KT 10SM FEW034 FEW100 23/21 A3005 RMK
AO2 SLP175 70071 T02280211 10228 20222 52017





000
SAUS42 KCHS 031155
MTRSAV
METAR KSAV 031153Z 23009KT 10SM FEW041 SCT250 23/21 A3005 RMK AO2
SLP175 70008 T02280206 10228 20217 53010





000
SAUS42 KCHS 031057
MTRNBC
METAR KNBC 031056Z AUTO 25007KT 10SM FEW014 SCT042 SCT080 23/21
A3004 RMK AO2 PRESRR SLP173 T02280206





000
SAUS42 KCHS 031057
MTRNBC
METAR KNBC 031056Z AUTO 25007KT 10SM FEW014 SCT042 SCT080 23/21
A3004 RMK AO2 PRESRR SLP173 T02280206





000
SAUS42 KCHS 031054
MTRSAV
METAR KSAV 031053Z 22006KT 10SM BKN043 BKN150 BKN250 22/20 A3004 RMK
AO2 SLP171 CB DSNT N-NE T02170200





000
SAUS42 KCHS 031054
MTRSAV
METAR KSAV 031053Z 22006KT 10SM BKN043 BKN150 BKN250 22/20 A3004 RMK
AO2 SLP171 CB DSNT N-NE T02170200





000
SAUS42 KCHS 030958
MTRNBC
METAR KNBC 030956Z AUTO 22008KT 10SM CLR 22/21 A3001 RMK AO2 SLP161
T02220206





000
SAUS42 KCHS 030958
MTRNBC
METAR KNBC 030956Z AUTO 22008KT 10SM CLR 22/21 A3001 RMK AO2 SLP161
T02220206





000
SAUS42 KCHS 030955
MTRSAV
METAR KSAV 030953Z 21007KT 10SM FEW150 SCT250 22/20 A3003 RMK AO2
SLP167 FIRST AUGMENTED OBSERVATION T02170200





000
SAUS42 KCHS 030857
MTRNBC
METAR KNBC 030856Z AUTO 21007KT 10SM CLR 22/21 A3000 RMK AO2 SLP159
T02220211 56001





000
SAUS42 KCHS 030855
MTRSAV
METAR KSAV 030853Z AUTO 21005KT 10SM CLR 22/20 A3002 RMK AO2 SLP165
T02170200 53000 TSNO





000
SAUS42 KCHS 030757
MTRNBC
METAR KNBC 030756Z AUTO 21007KT 10SM CLR 22/21 A3000 RMK AO2 SLP160
T02220211





000
SAUS42 KCHS 030754
MTRSAV
METAR KSAV 030753Z AUTO 23006KT 10SM CLR 22/21 A3002 RMK AO2 SLP164
T02170206 TSNO





000
SAUS42 KCHS 030754
MTRSAV
METAR KSAV 030753Z AUTO 23006KT 10SM CLR 22/21 A3002 RMK AO2 SLP164
T02170206 TSNO





000
SAUS42 KCHS 030657
MTRNBC
METAR KNBC 030656Z AUTO 20005KT 10SM CLR 22/22 A3000 RMK AO2 SLP158
T02220217





000
SAUS42 KCHS 030654
MTRSAV
METAR KSAV 030653Z AUTO 21006KT 10SM FEW005 22/21 A3001 RMK AO2
SLP163 T02170206 TSNO





000
SAUS42 KCHS 030641
MTRSAV
SPECI KSAV 030640Z AUTO 22005KT 10SM FEW005 22/21 A3001 RMK AO2 TSNO





000
SAUS42 KCHS 030557
MTRNBC
METAR KNBC 030556Z AUTO 22007KT 9SM CLR 22/22 A3000 RMK AO2 SLP160
60019 T02220217 10228 20217 58004





000
SAUS42 KCHS 030557
MTRNBC
METAR KNBC 030556Z AUTO 22007KT 9SM CLR 22/22 A3000 RMK AO2 SLP160
60019 T02220217 10228 20217 58004





000
SAUS42 KCHS 030554
MTRSAV
METAR KSAV 030553Z AUTO 21007KT 10SM CLR 22/21 A3002 RMK AO2 SLP165
60008 T02220206 10228 20217 58005 TSNO





000
SAUS42 KCHS 030554
MTRSAV
METAR KSAV 030553Z AUTO 21007KT 10SM CLR 22/21 A3002 RMK AO2 SLP165
60008 T02220206 10228 20217 58005 TSNO





000
SAUS42 KCHS 030457
MTRNBC
METAR KNBC 030456Z AUTO 23006KT 10SM CLR 22/22 A3000 RMK AO2 SLP160
T02220217 403500217





000
SAUS42 KCHS 030454
MTRSAV
METAR KSAV 030453Z AUTO 22009KT 10SM FEW004 22/21 A3003 RMK AO2
SLP169 T02220206 403390222 TSNO





000
SAUS42 KCHS 030451
MTRSAV
SPECI KSAV 030449Z AUTO 22008KT 10SM FEW004 22/21 A3004 RMK AO2
403390222 TSNO





000
SAUS42 KCHS 030451
MTRSAV
SPECI KSAV 030449Z AUTO 22008KT 10SM FEW004 22/21 A3004 RMK AO2
403390222 TSNO





000
SAUS42 KCHS 030357
MTRNBC
METAR KNBC 030356Z AUTO 24004KT 10SM CLR 22/21 A3002 RMK AO2 RAE06
SLP165 P0000 T02220211





000
SAUS42 KCHS 030354
MTRSAV
METAR KSAV 030353Z 21004KT 10SM SCT095 BKN130 OVC200 23/21 A3004 RMK
AO2 SLP170 LAST AUGMENTED OBSERVATION UNTIL 1000Z T02280206





000
SAUS42 KCHS 030257
MTRNBC
METAR KNBC 030256Z AUTO 20004KT 9SM -RA FEW110 22/22 A3001 RMK AO2
SLP164 P0003 60019 T02220217 58000





000
SAUS42 KCHS 030254
MTRSAV
METAR KSAV 030253Z 00000KT 10SM SCT095 BKN130 OVC200 23/21 A3003 RMK
AO2 RAE0159 SLP168 P0000 60008 T02280211 50011





000
SAUS42 KCHS 030157
MTRNBC
METAR KNBC 030156Z AUTO 19005KT 6SM -RA SCT110 22/22 A3003 RMK AO2
SLP168 P0010 T02220217





000
SAUS42 KCHS 030157
MTRNBC
METAR KNBC 030156Z AUTO 19005KT 6SM -RA SCT110 22/22 A3003 RMK AO2
SLP168 P0010 T02220217





000
SAUS42 KCHS 030155
MTRSAV
METAR KSAV 030153Z 00000KT 10SM -RA FEW008 SCT050 BKN095 BKN130
OVC200 22/21 A3004 RMK AO2 SLP172 P0003 T02220206





000
SAUS42 KCHS 030155
MTRSAV
METAR KSAV 030153Z 00000KT 10SM -RA FEW008 SCT050 BKN095 BKN130
OVC200 22/21 A3004 RMK AO2 SLP172 P0003 T02220206





000
SAUS42 KCHS 030057
MTRNBC
METAR KNBC 030056Z AUTO 26009KT 7SM RA SCT120 22/21 A3006 RMK AO2
TSE48 SLP180 P0006 T02220206





000
SAUS42 KCHS 030055
MTRSAV
METAR KSAV 030053Z 27005KT 5SM RA BR FEW080 SCT095 BKN110 OVC200
22/21 A3006 RMK AO2 SLP179 P0005 T02220211





000
SAUS42 KCHS 030053
MTRNBC
SPECI KNBC 030051Z AUTO 28009KT 9SM -RA SCT120 22/21 A3006 RMK AO2
TSE48 P0005





000
SAUS42 KCHS 030053
MTRNBC
SPECI KNBC 030051Z AUTO 28009KT 9SM -RA SCT120 22/21 A3006 RMK AO2
TSE48 P0005





000
SAUS42 KCHS 030017
MTRNBC
SPECI KNBC 030016Z AUTO 30009KT 7SM -TSRA SCT025 SCT070 BKN100 22/21
A3002 RMK AO2 P0003 T02170206





000
SAUS42 KCHS 030017
MTRNBC
SPECI KNBC 030016Z AUTO 30009KT 7SM -TSRA SCT025 SCT070 BKN100 22/21
A3002 RMK AO2 P0003 T02170206





000
SAUS42 KCHS 030005
MTRNBC
SPECI KNBC 030003Z AUTO 30009KT 3SM TSRA BKN029 BKN050 OVC070 22/21
A3000 RMK AO2 PRESFR P0001 T02170206





000
SAUS42 KCHS 030005
MTRNBC
SPECI KNBC 030003Z AUTO 30009KT 3SM TSRA BKN029 BKN050 OVC070 22/21
A3000 RMK AO2 PRESFR P0001 T02170206





000
SAUS42 KCHS 030000
MTRNBC
SPECI KNBC 022359Z AUTO 30009KT 1 1/4SM TSRA BKN025 BKN050 OVC085
22/21 A3001 RMK AO2 P0001 T02170206





000
SAUS42 KCHS 030000
MTRNBC
SPECI KNBC 022359Z AUTO 30009KT 1 1/4SM TSRA BKN025 BKN050 OVC085
22/21 A3001 RMK AO2 P0001 T02170206





000
SAUS42 KCHS 022357
MTRNBC
METAR KNBC 022356Z AUTO 29011KT 1/2SM +TSRA BKN022 BKN030 OVC070
22/21 A3002 RMK AO2 PK WND 28042/2339 WSHFT 2336 RAB42 TSB29 SLP164
P0052 60052 T02220206 10350 20222 53027





000
SAUS42 KCHS 022354
MTRSAV
METAR KSAV 022353Z 29016G21KT 10SM -RA SCT037 SCT055 BKN085 BKN130
OVC200 23/19 A3000 RMK AO2 PK WND 27034/2311 RAB10E23B45 SLP157
P0000 60000 T02280194 10339 20228 53016





000
SAUS42 KCHS 022349
MTRNBC
SPECI KNBC 022348Z AUTO 29017G42KT 3/4SM +TSRA FEW010 BKN030 BKN050
23/20 A3003 RMK AO2 PK WND 28042/2339 RAB42 TSB29 P0033 T02330200





000
SAUS42 KCHS 022349
MTRNBC
SPECI KNBC 022348Z AUTO 29017G42KT 3/4SM +TSRA FEW010 BKN030 BKN050
23/20 A3003 RMK AO2 PK WND 28042/2339 RAB42 TSB29 P0033 T02330200





000
SAUS42 KCHS 022348
MTRNBC
SPECI KNBC 022346Z AUTO 29024G42KT 1 1/2SM -TSRA FEW015 SCT030
BKN050 24/20 A3004 RMK AO2 PK WND 28042/2339 RAB42 TSB29 PRESRR
P0016 T02440200





000
SAUS42 KCHS 022348
MTRNBC
SPECI KNBC 022346Z AUTO 29024G42KT 1 1/2SM -TSRA FEW015 SCT030
BKN050 24/20 A3004 RMK AO2 PK WND 28042/2339 RAB42 TSB29 PRESRR
P0016 T02440200





000
SAUS42 KCHS 022336
MTRNBC
SPECI KNBC 022335Z AUTO 21009G16KT 10SM TS FEW070 29/24 A2998 RMK
AO2 TSB29 PRESRR T02890239





000
SAUS42 KCHS 022258 COR
MTRNBC
METAR KNBC 022256Z AUTO 19010G19KT 10SM CLR 29/24 A2994 RMK AO2
SLP140 T02940239





000
SAUS42 KCHS 022254
MTRSAV
METAR KSAV 022253Z 25011KT 10SM SCT049CB BKN070 BKN100 BKN250 32/21
A2996 RMK AO2 SLP143 CB ALQDS T03170206





000
SAUS42 KCHS 022157
MTRNBC
METAR KNBC 022156Z AUTO 17008G15KT 10SM FEW070 33/24 A2994 RMK AO2
SLP139 T03280244





000
SAUS42 KCHS 022154
MTRSAV
METAR KSAV 022153Z 22009KT 10SM SCT055 SCT075 BKN250 33/21 A2994 RMK
AO2 SLP139 T03280206





000
SAUS42 KCHS 022154
MTRSAV
METAR KSAV 022153Z 22009KT 10SM SCT055 SCT075 BKN250 33/21 A2994 RMK
AO2 SLP139 T03280206





    US Dept of Commerce
    National Oceanic and Atmospheric Administration
    National Weather Service
    1325 East West Highway
    Silver Spring, MD 20910
    Page Author: NWS Internet Services Team
Disclaimer
Information Quality
Credits
Glossary
Privacy Policy
Freedom of Information Act (FOIA)
About Us
Career Opportunities